Time,TemperatureF,DewpointF,PressureIn,WindDirection,WindDirectionDegrees,WindSpeedMPH,WindSpeedGustMPH,Humidity,HourlyPrecipIn,Conditions,Clouds,dailyrainin,SolarRadiationWatts/m^2,SoftwareType,DateUTC
2013-04-15 00:01:00,47.2,45.3,29.90,NW,321,5.0,7.0,93,0.00,,,0.00,0,Wunderground v.1.15,2013-04-15 07:01:00,
2013-04-15 00:41:00,48.3,46.7,29.90,North,5,8.0,8.0,94,0.00,,,0.00,0,Wunderground v.1.15,2013-04-15 07:41:00,
2013-04-15 00:43:00,48.3,46.7,29.90,NW,319,8.0,9.0,94,0.00,,,0.00,0,Wunderground v.1.15,2013-04-15 07:43:00,
2013-04-15 00:48:00,48.3,46.7,29.90,NNW,344,9.0,14.0,94,0.00,,,0.00,0,Wunderground v.1.15,2013-04-15 07:48:00,
2013-04-15 00:50:00,48.3,46.7,29.90,NNW,336,10.0,14.0,94,0.00,,,0.00,0,Wunderground v.1.15,2013-04-15 07:50:00,
2013-04-15 00:51:00,48.2,46.6,29.90,North,355,10.0,12.0,94,0.00,,,0.00,0,Wunderground v.1.15,2013-04-15 07:51:00,
2013-04-15 00:56:00,48.2,46.6,29.90,NNW,336,11.0,12.0,94,0.00,,,0.00,0,Wunderground v.1.15,2013-04-15 07:56:00,
2013-04-15 01:01:00,48.2,46.6,29.90,North,360,9.0,10.0,94,0.00,,,0.00,0,Wunderground v.1.15,2013-04-15 08:01:00,
2013-04-15 01:07:00,48.2,46.6,29.90,NNW,333,9.0,14.0,94,0.00,,,0.00,0,Wunderground v.1.15,2013-04-15 08:07:00,
2013-04-15 01:12:00,48.2,46.6,29.90,NNW,342,9.0,9.0,94,0.00,,,0.00,0,Wunderground v.1.15,2013-04-15 08:12:00,
2013-04-15 01:19:00,48.2,46.8,29.90,NNW,346,9.0,13.0,95,0.00,,,0.00,0,Wunderground v.1.15,2013-04-15 08:19:00,
2013-04-15 01:24:00,48.2,46.8,29.90,NW,320,10.0,11.0,95,0.00,,,0.00,0,Wunderground v.1.15,2013-04-15 08:24:00,
2013-04-15 01:29:00,48.1,46.7,29.90,NNW,341,11.0,11.0,95,0.00,,,0.00,0,Wunderground v.1.15,2013-04-15 08:29:00,
2013-04-15 01:35:00,48.1,46.7,29.90,NNW,344,10.0,12.0,95,0.00,,,0.00,0,Wunderground v.1.15,2013-04-15 08:35:00,
2013-04-15 01:40:00,48.0,46.6,29.90,NW,326,11.0,16.0,95,0.00,,,0.00,0,Wunderground v.1.15,2013-04-15 08:40:00,
2013-04-15 01:41:00,47.9,46.5,29.90,NNW,342,11.0,16.0,95,0.00,,,0.00,0,Wunderground v.1.15,2013-04-15 08:41:00,
2013-04-15 01:47:00,47.9,46.5,29.90,NNW,345,10.0,11.0,95,0.00,,,0.00,0,Wunderground v.1.15,2013-04-15 08:47:00,
2013-04-15 01:49:00,47.9,46.5,29.90,NNW,342,9.0,11.0,95,0.00,,,0.00,0,Wunderground v.1.15,2013-04-15 08:49:00,
2013-04-15 01:54:00,47.9,46.5,29.89,NW,323,9.0,13.0,95,0.00,,,0.00,0,Wunderground v.1.15,2013-04-15 08:54:00,
2013-04-15 01:59:00,47.8,46.4,29.89,North,350,10.0,14.0,95,0.00,,,0.00,0,Wunderground v.1.15,2013-04-15 08:59:00,
2013-04-15 02:04:00,47.7,46.3,29.89,NNW,343,10.0,14.0,95,0.00,,,0.00,0,Wunderground v.1.15,2013-04-15 09:04:00,
2013-04-15 02:09:00,47.6,46.2,29.89,North,9,11.0,14.0,95,0.00,,,0.00,0,Wunderground v.1.15,2013-04-15 09:09:00,
2013-04-15 02:14:00,47.6,46.2,29.89,NNW,327,10.0,14.0,95,0.00,,,0.00,0,Wunderground v.1.15,2013-04-15 09:14:00,
2013-04-15 02:21:00,47.3,45.9,29.89,North,9,10.0,10.0,95,0.00,,,0.00,0,Wunderground v.1.15,2013-04-15 09:21:00,
2013-04-15 02:26:00,47.1,45.7,29.89,North,11,10.0,12.0,95,0.00,,,0.00,0,Wunderground v.1.15,2013-04-15 09:26:00,
2013-04-15 02:31:00,46.9,45.5,29.89,NW,315,9.0,9.0,95,0.00,,,0.00,0,Wunderground v.1.15,2013-04-15 09:31:00,
2013-04-15 02:37:00,46.8,45.4,29.89,NW,324,8.0,11.0,95,0.00,,,0.00,0,Wunderground v.1.15,2013-04-15 09:37:00,
2013-04-15 02:42:00,46.4,45.0,29.89,NNW,345,7.0,8.0,95,0.00,,,0.00,0,Wunderground v.1.15,2013-04-15 09:42:00,
2013-04-15 02:48:00,46.0,44.4,29.89,NW,323,9.0,10.0,94,0.00,,,0.00,0,Wunderground v.1.15,2013-04-15 09:48:00,
2013-04-15 02:54:00,45.6,44.3,29.89,NNE,24,8.0,10.0,95,0.00,,,0.00,0,Wunderground v.1.15,2013-04-15 09:54:00,
2013-04-15 02:59:00,45.4,44.1,29.89,NNW,333,7.0,10.0,95,0.00,,,0.00,0,Wunderground v.1.15,2013-04-15 09:59:00,
2013-04-15 03:04:00,45.3,44.0,29.89,NNW,339,8.0,11.0,95,0.00,,,0.00,0,Wunderground v.1.15,2013-04-15 10:04:00,
2013-04-15 03:11:00,45.0,43.7,29.89,NW,325,7.0,7.0,95,0.00,,,0.00,0,Wunderground v.1.15,2013-04-15 10:11:00,
2013-04-15 03:16:00,44.8,43.5,29.89,NNW,338,7.0,10.0,95,0.00,,,0.00,0,Wunderground v.1.15,2013-04-15 10:16:00,
2013-04-15 03:22:00,44.5,43.2,29.89,NNE,18,8.0,8.0,95,0.00,,,0.00,0,Wunderground v.1.15,2013-04-15 10:22:00,
2013-04-15 03:27:00,44.4,43.1,29.89,NW,323,7.0,8.0,95,0.00,,,0.00,0,Wunderground v.1.15,2013-04-15 10:27:00,
2013-04-15 03:32:00,44.3,43.0,29.89,NNE,14,6.0,10.0,95,0.00,,,0.00,0,Wunderground v.1.15,2013-04-15 10:32:00,
2013-04-15 03:38:00,44.2,42.9,29.89,NNW,344,7.0,10.0,95,0.00,,,0.00,0,Wunderground v.1.15,2013-04-15 10:38:00,
2013-04-15 03:43:00,44.1,42.8,29.89,NNW,338,6.0,7.0,95,0.00,,,0.00,0,Wunderground v.1.15,2013-04-15 10:43:00,
2013-04-15 03:49:00,44.0,42.7,29.89,NW,319,5.0,7.0,95,0.00,,,0.00,0,Wunderground v.1.15,2013-04-15 10:49:00,
2013-04-15 03:54:00,43.9,42.6,29.90,NW,321,4.0,6.0,95,0.00,,,0.00,0,Wunderground v.1.15,2013-04-15 10:54:00,
2013-04-15 03:59:00,43.9,42.6,29.89,NNW,329,4.0,6.0,95,0.00,,,0.00,0,Wunderground v.1.15,2013-04-15 10:59:00,
2013-04-15 04:04:00,43.9,42.6,29.90,NW,311,2.0,3.0,95,0.00,,,0.00,0,Wunderground v.1.15,2013-04-15 11:04:00,
2013-04-15 04:11:00,43.8,42.5,29.89,WNW,294,2.0,2.0,95,0.00,,,0.00,0,Wunderground v.1.15,2013-04-15 11:11:00,
2013-04-15 04:16:00,43.8,42.5,29.89,WSW,250,1.0,5.0,95,0.00,,,0.00,0,Wunderground v.1.15,2013-04-15 11:16:00,
2013-04-15 04:21:00,43.8,42.5,29.89,WSW,250,0.0,0.0,95,0.00,,,0.00,0,Wunderground v.1.15,2013-04-15 11:21:00,
2013-04-15 04:27:00,43.8,42.5,29.89,WNW,290,0.0,0.0,95,0.00,,,0.00,0,Wunderground v.1.15,2013-04-15 11:27:00,
2013-04-15 04:33:00,43.7,42.4,29.89,West,267,0.0,0.0,95,0.00,,,0.00,0,Wunderground v.1.15,2013-04-15 11:33:00,
2013-04-15 04:39:00,43.7,42.4,29.89,WSW,238,0.0,3.0,95,0.00,,,0.00,0,Wunderground v.1.15,2013-04-15 11:39:00,
2013-04-15 04:44:00,43.7,42.4,29.89,WSW,244,1.0,1.0,95,0.00,,,0.00,0,Wunderground v.1.15,2013-04-15 11:44:00,
2013-04-15 04:49:00,43.8,42.5,29.89,SW,235,1.0,5.0,95,0.00,,,0.00,0,Wunderground v.1.15,2013-04-15 11:49:00,
2013-04-15 04:55:00,43.8,42.5,29.89,SW,234,1.0,1.0,95,0.00,,,0.00,0,Wunderground v.1.15,2013-04-15 11:55:00,
2013-04-15 05:01:00,43.8,42.5,29.89,SW,232,0.0,5.0,95,0.00,,,0.00,0,Wunderground v.1.15,2013-04-15 12:01:00,
2013-04-15 05:06:00,43.7,42.4,29.89,SW,228,2.0,5.0,95,0.00,,,0.00,0,Wunderground v.1.15,2013-04-15 12:06:00,
2013-04-15 05:11:00,43.7,42.4,29.89,SW,222,2.0,3.0,95,0.00,,,0.00,0,Wunderground v.1.15,2013-04-15 12:11:00,
2013-04-15 05:17:00,43.6,42.3,29.89,WSW,247,1.0,3.0,95,0.00,,,0.00,0,Wunderground v.1.15,2013-04-15 12:17:00,
2013-04-15 05:22:00,43.6,42.3,29.89,WSW,247,1.0,1.0,95,0.00,,,0.00,0,Wunderground v.1.15,2013-04-15 12:22:00,
2013-04-15 05:28:00,43.5,42.2,29.89,SW,236,0.0,1.0,95,0.00,,,0.00,0,Wunderground v.1.15,2013-04-15 12:28:00,
2013-04-15 05:33:00,43.5,42.2,29.89,SW,236,0.0,0.0,95,0.00,,,0.00,0,Wunderground v.1.15,2013-04-15 12:33:00,
2013-04-15 05:39:00,43.5,42.2,29.89,SW,236,0.0,0.0,95,0.00,,,0.00,0,Wunderground v.1.15,2013-04-15 12:39:00,
2013-04-15 05:45:00,43.5,42.2,29.89,SW,236,0.0,0.0,95,0.00,,,0.00,0,Wunderground v.1.15,2013-04-15 12:45:00,
2013-04-15 05:51:00,43.5,42.2,29.89,SW,236,0.0,0.0,95,0.00,,,0.00,0,Wunderground v.1.15,2013-04-15 12:51:00,
2013-04-15 05:56:00,43.6,42.3,29.90,SW,236,0.0,0.0,95,0.00,,,0.00,0,Wunderground v.1.15,2013-04-15 12:56:00,
2013-04-15 06:01:00,43.6,42.3,29.89,SW,236,0.0,0.0,95,0.00,,,0.00,0,Wunderground v.1.15,2013-04-15 13:01:00,
2013-04-15 06:07:00,43.8,42.5,29.90,SW,236,0.0,0.0,95,0.00,,,0.00,0,Wunderground v.1.15,2013-04-15 13:07:00,
2013-04-15 06:13:00,43.9,42.6,29.90,SW,236,0.0,0.0,95,0.00,,,0.00,0,Wunderground v.1.15,2013-04-15 13:13:00,
2013-04-15 06:19:00,43.9,42.6,29.90,SW,236,0.0,0.0,95,0.00,,,0.00,0,Wunderground v.1.15,2013-04-15 13:19:00,
2013-04-15 06:25:00,44.0,42.7,29.90,WSW,237,0.0,0.0,95,0.00,,,0.00,0,Wunderground v.1.15,2013-04-15 13:25:00,
2013-04-15 06:32:00,44.0,42.7,29.90,SW,236,0.0,0.0,95,0.00,,,0.00,0,Wunderground v.1.15,2013-04-15 13:32:00,
2013-04-15 06:37:00,44.0,42.7,29.90,SW,236,0.0,0.0,95,0.00,,,0.00,0,Wunderground v.1.15,2013-04-15 13:37:00,
2013-04-15 06:42:00,44.0,42.7,29.90,SW,236,0.0,0.0,95,0.00,,,0.00,7,Wunderground v.1.15,2013-04-15 13:42:00,
2013-04-15 06:48:00,44.0,42.7,29.91,SW,236,0.0,0.0,95,0.00,,,0.00,9,Wunderground v.1.15,2013-04-15 13:48:00,
2013-04-15 06:53:00,43.9,42.6,29.91,North,355,1.0,6.0,95,0.00,,,0.00,12,Wunderground v.1.15,2013-04-15 13:53:00,
2013-04-15 06:59:00,43.7,42.4,29.91,North,5,1.0,6.0,95,0.00,,,0.00,14,Wunderground v.1.15,2013-04-15 13:59:00,
2013-04-15 07:04:00,43.6,42.3,29.91,North,5,2.0,5.0,95,0.00,,,0.00,19,Wunderground v.1.15,2013-04-15 14:04:00,
2013-04-15 07:09:00,43.4,42.1,29.91,North,5,4.0,6.0,95,0.00,,,0.00,30,Wunderground v.1.15,2013-04-15 14:09:00,
2013-04-15 07:15:00,43.3,42.0,29.92,North,5,5.0,5.0,95,0.00,,,0.00,42,Wunderground v.1.15,2013-04-15 14:15:00,
2013-04-15 07:21:00,43.2,41.9,29.92,North,360,3.0,3.0,95,0.00,,,0.00,39,Wunderground v.1.15,2013-04-15 14:21:00,
2013-04-15 07:26:00,43.3,42.0,29.92,North,355,1.0,3.0,95,0.00,,,0.00,54,Wunderground v.1.15,2013-04-15 14:26:00,
2013-04-15 07:32:00,43.3,42.0,29.92,North,355,0.0,0.0,95,0.00,,,0.00,58,Wunderground v.1.15,2013-04-15 14:32:00,
2013-04-15 07:37:00,43.2,41.9,29.92,NNW,327,0.0,5.0,95,0.00,,,0.00,74,Wunderground v.1.15,2013-04-15 14:37:00,
2013-04-15 07:42:00,43.1,41.8,29.93,NNW,344,2.0,2.0,95,0.00,,,0.00,65,Wunderground v.1.15,2013-04-15 14:42:00,
2013-04-15 07:48:00,43.2,41.9,29.93,North,355,1.0,2.0,95,0.00,,,0.00,62,Wunderground v.1.15,2013-04-15 14:48:00,
2013-04-15 07:53:00,43.2,41.9,29.93,North,355,1.0,1.0,95,0.00,,,0.00,81,Wunderground v.1.15,2013-04-15 14:53:00,
2013-04-15 07:59:00,43.2,41.9,29.93,NNW,336,1.0,1.0,95,0.00,,,0.00,93,Wunderground v.1.15,2013-04-15 14:59:00,
2013-04-15 08:04:00,43.2,41.9,29.93,NNE,33,0.0,0.0,95,0.00,,,0.00,179,Wunderground v.1.15,2013-04-15 15:04:00,
2013-04-15 08:09:00,43.3,42.0,29.93,NNE,23,1.0,7.0,95,0.00,,,0.00,167,Wunderground v.1.15,2013-04-15 15:09:00,
2013-04-15 08:14:00,43.5,41.9,29.93,NNE,16,4.0,7.0,94,0.00,,,0.00,125,Wunderground v.1.15,2013-04-15 15:14:00,
2013-04-15 08:21:00,43.7,42.1,29.93,NNW,336,7.0,8.0,94,0.00,,,0.00,114,Wunderground v.1.15,2013-04-15 15:21:00,
2013-04-15 08:27:00,43.8,41.9,29.93,North,355,7.0,9.0,93,0.00,,,0.00,148,Wunderground v.1.15,2013-04-15 15:27:00,
2013-04-15 08:32:00,43.9,41.7,29.93,North,10,6.0,7.0,92,0.00,,,0.00,214,Wunderground v.1.15,2013-04-15 15:32:00,
2013-04-15 08:37:00,44.1,41.9,29.93,NNE,19,5.0,7.0,92,0.00,,,0.00,148,Wunderground v.1.15,2013-04-15 15:37:00,
2013-04-15 08:43:00,44.2,41.7,29.93,North,355,6.0,7.0,91,0.00,,,0.00,197,Wunderground v.1.15,2013-04-15 15:43:00,
2013-04-15 08:48:00,44.4,41.4,29.93,NNE,28,6.0,7.0,89,0.00,,,0.00,253,Wunderground v.1.15,2013-04-15 15:48:00,
2013-04-15 08:54:00,44.7,41.7,29.93,NW,311,4.0,5.0,89,0.00,,,0.00,160,Wunderground v.1.15,2013-04-15 15:54:00,
2013-04-15 08:59:00,44.9,41.6,29.93,NNW,330,3.0,7.0,88,0.00,,,0.00,144,Wunderground v.1.15,2013-04-15 15:59:00,
2013-04-15 09:05:00,45.2,41.6,29.93,NNW,346,4.0,6.0,87,0.00,,,0.00,165,Wunderground v.1.15,2013-04-15 16:05:00,
2013-04-15 09:11:00,45.4,41.5,29.93,NW,306,3.0,3.0,86,0.00,,,0.00,199,Wunderground v.1.15,2013-04-15 16:11:00,
2013-04-15 09:16:00,45.5,41.3,29.93,NNW,335,4.0,8.0,85,0.00,,,0.00,492,Wunderground v.1.15,2013-04-15 16:16:00,
2013-04-15 09:21:00,45.8,41.2,29.93,NNE,15,4.0,7.0,84,0.00,,,0.00,554,Wunderground v.1.15,2013-04-15 16:21:00,
2013-04-15 09:27:00,46.3,41.1,29.93,North,355,3.0,7.0,82,0.00,,,0.00,193,Wunderground v.1.15,2013-04-15 16:27:00,
2013-04-15 09:32:00,46.4,40.2,29.93,WNW,290,5.0,9.0,79,0.00,,,0.00,541,Wunderground v.1.15,2013-04-15 16:32:00,
2013-04-15 09:37:00,46.5,40.3,29.93,NNW,338,5.0,9.0,79,0.00,,,0.00,476,Wunderground v.1.15,2013-04-15 16:37:00,
2013-04-15 09:42:00,46.7,39.9,29.93,NNW,329,6.0,8.0,77,0.00,,,0.00,547,Wunderground v.1.15,2013-04-15 16:42:00,
2013-04-15 09:48:00,47.2,40.7,29.93,North,355,5.0,8.0,78,0.00,,,0.00,694,Wunderground v.1.15,2013-04-15 16:48:00,
2013-04-15 09:54:00,47.3,39.8,29.93,WNW,298,5.0,10.0,75,0.00,,,0.00,496,Wunderground v.1.15,2013-04-15 16:54:00,
2013-04-15 09:59:00,47.3,40.1,29.94,North,355,6.0,10.0,76,0.00,,,0.00,536,Wunderground v.1.15,2013-04-15 16:59:00,
2013-04-15 10:04:00,47.7,40.2,29.94,NW,317,5.0,9.0,75,0.00,,,0.00,515,Wunderground v.1.15,2013-04-15 17:04:00,
2013-04-15 10:11:00,47.8,39.9,29.93,NW,309,6.0,8.0,74,0.00,,,0.00,642,Wunderground v.1.15,2013-04-15 17:11:00,
2013-04-15 10:16:00,47.8,39.6,29.93,NW,320,7.0,9.0,73,0.00,,,0.00,162,Wunderground v.1.15,2013-04-15 17:16:00,
2013-04-15 10:21:00,47.8,39.9,29.93,North,5,6.0,13.0,74,0.00,,,0.00,621,Wunderground v.1.15,2013-04-15 17:21:00,
2013-04-15 10:22:00,47.9,40.0,29.93,NNW,333,6.0,13.0,74,0.00,,,0.00,255,Wunderground v.1.15,2013-04-15 17:22:00,
2013-04-15 10:25:00,48.0,40.1,29.94,NNW,329,6.0,13.0,74,0.00,,,0.00,330,Wunderground v.1.15,2013-04-15 17:25:00,
2013-04-15 10:27:00,48.0,40.1,29.94,West,269,6.0,13.0,74,0.00,,,0.00,413,Wunderground v.1.15,2013-04-15 17:27:00,
2013-04-15 10:33:00,47.9,40.7,29.95,WNW,290,6.0,7.0,76,0.00,,,0.00,295,Wunderground v.1.15,2013-04-15 17:33:00,
2013-04-15 10:39:00,47.8,40.6,29.94,NW,309,5.0,11.0,76,0.00,,,0.00,341,Wunderground v.1.15,2013-04-15 17:39:00,
2013-04-15 10:44:00,47.4,40.2,29.94,West,268,6.0,6.0,76,0.00,,,0.00,283,Wunderground v.1.15,2013-04-15 17:44:00,
2013-04-15 10:49:00,47.6,40.4,29.94,NNW,347,5.0,8.0,76,0.00,,,0.00,248,Wunderground v.1.15,2013-04-15 17:49:00,
2013-04-15 10:55:00,47.8,40.3,29.94,WNW,286,5.0,7.0,75,0.00,,,0.00,264,Wunderground v.1.15,2013-04-15 17:55:00,
2013-04-15 11:01:00,48.0,39.8,29.94,WNW,297,5.0,5.0,73,0.00,,,0.00,369,Wunderground v.1.15,2013-04-15 18:01:00,
2013-04-15 11:06:00,48.4,39.8,29.95,WSW,238,5.0,9.0,72,0.00,,,0.00,902,Wunderground v.1.15,2013-04-15 18:06:00,
2013-04-15 11:11:00,49.0,40.0,29.95,WSW,255,3.0,4.0,71,0.00,,,0.00,805,Wunderground v.1.15,2013-04-15 18:11:00,
2013-04-15 11:16:00,49.7,39.9,29.94,WSW,244,3.0,8.0,69,0.00,,,0.00,812,Wunderground v.1.15,2013-04-15 18:16:00,
2013-04-15 11:22:00,50.1,39.9,29.94,WNW,298,3.0,7.0,68,0.00,,,0.00,844,Wunderground v.1.15,2013-04-15 18:22:00,
2013-04-15 11:27:00,50.3,40.1,29.94,West,279,2.0,7.0,68,0.00,,,0.00,844,Wunderground v.1.15,2013-04-15 18:27:00,
2013-04-15 11:29:00,50.3,39.8,29.94,NW,319,3.0,7.0,67,0.00,,,0.00,870,Wunderground v.1.15,2013-04-15 18:29:00,
2013-04-15 11:31:00,50.3,39.8,29.94,WSW,250,3.0,3.0,67,0.00,,,0.00,853,Wunderground v.1.15,2013-04-15 18:31:00,
2013-04-15 11:33:00,50.4,40.2,29.94,NNE,14,3.0,3.0,68,0.00,,,0.00,865,Wunderground v.1.15,2013-04-15 18:33:00,
2013-04-15 11:34:00,50.5,40.3,29.94,West,269,3.0,3.0,68,0.00,,,0.00,870,Wunderground v.1.15,2013-04-15 18:34:00,
2013-04-15 11:41:00,50.9,39.5,29.94,WSW,242,2.0,5.0,65,0.00,,,0.00,946,Wunderground v.1.15,2013-04-15 18:41:00,
2013-04-15 11:46:00,51.2,40.6,29.94,WSW,244,2.0,5.0,67,0.00,,,0.00,937,Wunderground v.1.15,2013-04-15 18:46:00,
2013-04-15 11:51:00,51.6,39.8,29.94,North,350,3.0,9.0,64,0.00,,,0.00,1065,Wunderground v.1.15,2013-04-15 18:51:00,
2013-04-15 11:57:00,51.1,39.7,29.94,NW,311,6.0,9.0,65,0.00,,,0.00,353,Wunderground v.1.15,2013-04-15 18:57:00,
2013-04-15 12:02:00,50.8,39.5,29.94,NNW,344,6.0,7.0,65,0.00,,,0.00,353,Wunderground v.1.15,2013-04-15 19:02:00,
2013-04-15 12:08:00,50.3,39.0,29.94,NNW,340,8.0,12.0,65,0.00,,,0.00,965,Wunderground v.1.15,2013-04-15 19:08:00,
2013-04-15 12:14:00,50.3,38.2,29.94,NW,318,6.0,8.0,63,0.00,,,0.00,962,Wunderground v.1.15,2013-04-15 19:14:00,
2013-04-15 12:21:00,50.3,38.6,29.94,WNW,290,6.0,6.0,64,0.00,,,0.00,165,Wunderground v.1.15,2013-04-15 19:21:00,
2013-04-15 12:26:00,50.4,39.1,29.94,NW,314,5.0,7.0,65,0.00,,,0.00,962,Wunderground v.1.15,2013-04-15 19:26:00,
2013-04-15 12:32:00,50.7,39.0,29.94,North,355,4.0,8.0,64,0.00,,,0.00,995,Wunderground v.1.15,2013-04-15 19:32:00,
2013-04-15 12:37:00,50.6,38.5,29.94,WNW,297,5.0,9.0,63,0.00,,,0.00,942,Wunderground v.1.15,2013-04-15 19:37:00,
2013-04-15 12:42:00,50.7,38.1,29.94,NNW,338,5.0,5.0,62,0.00,,,0.00,991,Wunderground v.1.15,2013-04-15 19:42:00,
2013-04-15 12:48:00,50.7,38.1,29.94,NE,42,6.0,11.0,62,0.00,,,0.00,991,Wunderground v.1.15,2013-04-15 19:48:00,
2013-04-15 12:53:00,50.7,38.6,29.94,North,360,7.0,11.0,63,0.00,,,0.00,165,Wunderground v.1.15,2013-04-15 19:53:00,
2013-04-15 12:57:00,50.5,38.8,29.94,WNW,303,8.0,13.0,64,0.00,,,0.00,1051,Wunderground v.1.15,2013-04-15 19:57:00,
2013-04-15 12:58:00,50.5,38.4,29.95,NW,315,9.0,13.0,63,0.00,,,0.00,1051,Wunderground v.1.15,2013-04-15 19:58:00,
2013-04-15 12:59:00,50.5,38.8,29.95,North,355,9.0,13.0,64,0.00,,,0.00,1051,Wunderground v.1.15,2013-04-15 19:59:00,
2013-04-15 13:01:00,50.5,39.2,29.94,North,355,9.0,10.0,65,0.00,,,0.00,1129,Wunderground v.1.15,2013-04-15 20:01:00,
2013-04-15 13:02:00,50.5,39.6,29.94,North,349,9.0,14.0,66,0.00,,,0.00,1088,Wunderground v.1.15,2013-04-15 20:02:00,
2013-04-15 13:03:00,50.6,39.7,29.94,North,9,9.0,14.0,66,0.00,,,0.00,1051,Wunderground v.1.15,2013-04-15 20:03:00,
2013-04-15 13:04:00,50.8,39.1,29.94,NW,314,10.0,14.0,64,0.00,,,0.00,1018,Wunderground v.1.15,2013-04-15 20:04:00,
2013-04-15 13:08:00,51.1,39.3,29.94,NW,316,10.0,14.0,64,0.00,,,0.00,995,Wunderground v.1.15,2013-04-15 20:08:00,
2013-04-15 13:11:00,51.3,39.1,29.94,NW,308,11.0,11.0,63,0.00,,,0.00,988,Wunderground v.1.15,2013-04-15 20:11:00,
2013-04-15 13:16:00,51.4,39.6,29.95,NW,312,11.0,14.0,64,0.00,,,0.00,1002,Wunderground v.1.15,2013-04-15 20:16:00,
2013-04-15 13:21:00,51.6,40.2,29.94,NNW,347,10.0,18.0,65,0.00,,,0.00,974,Wunderground v.1.15,2013-04-15 20:21:00,
2013-04-15 13:26:00,51.9,40.1,29.95,NNW,331,11.0,18.0,64,0.00,,,0.00,976,Wunderground v.1.15,2013-04-15 20:26:00,
2013-04-15 13:31:00,52.0,40.6,29.94,North,5,14.0,18.0,65,0.00,,,0.00,976,Wunderground v.1.15,2013-04-15 20:31:00,
2013-04-15 13:37:00,51.7,40.3,29.94,North,5,15.0,18.0,65,0.00,,,0.00,974,Wunderground v.1.15,2013-04-15 20:37:00,
2013-04-15 13:42:00,51.9,40.9,29.94,WNW,292,13.0,14.0,66,0.00,,,0.00,1076,Wunderground v.1.15,2013-04-15 20:42:00,
2013-04-15 13:48:00,52.2,40.4,29.94,NNW,342,11.0,16.0,64,0.00,,,0.00,1025,Wunderground v.1.15,2013-04-15 20:48:00,
2013-04-15 13:54:00,52.4,40.6,29.94,North,360,10.0,11.0,64,0.00,,,0.00,1111,Wunderground v.1.15,2013-04-15 20:54:00,
2013-04-15 14:00:00,52.8,40.1,29.94,North,360,12.0,12.0,62,0.00,,,0.00,1002,Wunderground v.1.15,2013-04-15 21:00:00,
2013-04-15 14:06:00,52.8,41.0,29.94,NW,323,13.0,17.0,64,0.00,,,0.00,965,Wunderground v.1.15,2013-04-15 21:06:00,
2013-04-15 14:11:00,52.9,41.4,29.94,North,355,13.0,15.0,65,0.00,,,0.00,974,Wunderground v.1.15,2013-04-15 21:11:00,
2013-04-15 14:17:00,52.8,40.1,29.94,North,355,14.0,16.0,62,0.00,,,0.00,925,Wunderground v.1.15,2013-04-15 21:17:00,
2013-04-15 14:22:00,52.4,39.8,29.94,North,355,16.0,20.0,62,0.00,,,0.00,911,Wunderground v.1.15,2013-04-15 21:22:00,
2013-04-15 14:27:00,52.4,39.3,29.94,NNE,21,16.0,29.0,61,0.00,,,0.00,905,Wunderground v.1.15,2013-04-15 21:27:00,
2013-04-15 14:32:00,52.5,39.0,29.94,NNW,343,15.0,22.0,60,0.00,,,0.00,898,Wunderground v.1.15,2013-04-15 21:32:00,
2013-04-15 14:37:00,52.2,38.7,29.94,North,5,16.0,22.0,60,0.00,,,0.00,896,Wunderground v.1.15,2013-04-15 21:37:00,
2013-04-15 14:42:00,52.1,38.6,29.93,North,349,16.0,20.0,60,0.00,,,0.00,888,Wunderground v.1.15,2013-04-15 21:42:00,
2013-04-15 14:48:00,51.8,39.6,29.93,NNW,329,16.0,20.0,63,0.00,,,0.00,881,Wunderground v.1.15,2013-04-15 21:48:00,
2013-04-15 14:53:00,52.1,40.7,29.93,North,355,14.0,20.0,65,0.00,,,0.00,877,Wunderground v.1.15,2013-04-15 21:53:00,
2013-04-15 14:58:00,51.9,40.5,29.93,North,355,15.0,20.0,65,0.00,,,0.00,868,Wunderground v.1.15,2013-04-15 21:58:00,
2013-04-15 15:04:00,52.0,40.6,29.92,North,355,14.0,18.0,65,0.00,,,0.00,858,Wunderground v.1.15,2013-04-15 22:04:00,
2013-04-15 15:09:00,51.4,40.0,29.92,NNE,15,14.0,18.0,65,0.00,,,0.00,842,Wunderground v.1.15,2013-04-15 22:09:00,
2013-04-15 15:15:00,51.3,39.9,29.92,WNW,287,15.0,18.0,65,0.00,,,0.00,837,Wunderground v.1.15,2013-04-15 22:15:00,
2013-04-15 15:21:00,50.8,39.5,29.92,North,5,16.0,16.0,65,0.00,,,0.00,819,Wunderground v.1.15,2013-04-15 22:21:00,
2013-04-15 15:26:00,51.0,39.6,29.92,NNW,344,17.0,21.0,65,0.00,,,0.00,812,Wunderground v.1.15,2013-04-15 22:26:00,
2013-04-15 15:32:00,50.7,38.6,29.92,NNE,13,18.0,25.0,63,0.00,,,0.00,802,Wunderground v.1.15,2013-04-15 22:32:00,
2013-04-15 15:37:00,50.6,38.9,29.91,NNE,15,18.0,27.0,64,0.00,,,0.00,795,Wunderground v.1.15,2013-04-15 22:37:00,
2013-04-15 15:42:00,51.0,38.4,29.91,North,355,17.0,29.0,62,0.00,,,0.00,784,Wunderground v.1.15,2013-04-15 22:42:00,
2013-04-15 15:48:00,50.5,37.5,29.91,North,11,21.0,29.0,61,0.00,,,0.00,768,Wunderground v.1.15,2013-04-15 22:48:00,
2013-04-15 15:53:00,50.6,38.1,29.91,NNW,333,21.0,22.0,62,0.00,,,0.00,752,Wunderground v.1.15,2013-04-15 22:53:00,
2013-04-15 15:58:00,50.9,37.5,29.91,North,9,18.0,28.0,60,0.00,,,0.00,742,Wunderground v.1.15,2013-04-15 22:58:00,
2013-04-15 16:03:00,50.4,37.0,29.91,NNE,25,21.0,31.0,60,0.00,,,0.00,714,Wunderground v.1.15,2013-04-15 23:03:00,
2013-04-15 16:09:00,50.0,37.5,29.90,NNW,346,24.0,36.0,62,0.00,,,0.00,710,Wunderground v.1.15,2013-04-15 23:09:00,
2013-04-15 16:15:00,50.0,38.3,29.91,NNE,31,22.0,29.0,64,0.00,,,0.00,694,Wunderground v.1.15,2013-04-15 23:15:00,
2013-04-15 16:21:00,50.2,37.7,29.91,North,5,19.0,19.0,62,0.00,,,0.00,680,Wunderground v.1.15,2013-04-15 23:21:00,
2013-04-15 16:26:00,50.1,37.6,29.91,NNE,15,20.0,27.0,62,0.00,,,0.00,668,Wunderground v.1.15,2013-04-15 23:26:00,
2013-04-15 16:31:00,49.9,37.4,29.91,North,5,20.0,20.0,62,0.00,,,0.00,650,Wunderground v.1.15,2013-04-15 23:31:00,
2013-04-15 16:36:00,50.1,37.2,29.91,NNW,341,19.0,22.0,61,0.00,,,0.00,640,Wunderground v.1.15,2013-04-15 23:36:00,
2013-04-15 16:42:00,49.7,36.8,29.91,North,10,21.0,23.0,61,0.00,,,0.00,622,Wunderground v.1.15,2013-04-15 23:42:00,
2013-04-15 16:47:00,49.4,36.1,29.91,NNE,24,21.0,25.0,60,0.00,,,0.00,598,Wunderground v.1.15,2013-04-15 23:47:00,
2013-04-15 16:53:00,49.5,36.6,29.91,North,355,18.0,23.0,61,0.00,,,0.00,580,Wunderground v.1.15,2013-04-15 23:53:00,
2013-04-15 16:59:00,49.4,35.7,29.91,NNE,17,19.0,29.0,59,0.00,,,0.00,563,Wunderground v.1.15,2013-04-15 23:59:00,
2013-04-15 17:05:00,49.1,35.8,29.91,North,355,21.0,30.0,60,0.00,,,0.00,547,Wunderground v.1.15,2013-04-16 00:05:00,
2013-04-15 17:11:00,48.8,36.4,29.91,North,5,20.0,20.0,62,0.00,,,0.00,524,Wunderground v.1.15,2013-04-16 00:11:00,
2013-04-15 17:16:00,48.8,36.4,29.91,North,360,19.0,27.0,62,0.00,,,0.00,504,Wunderground v.1.15,2013-04-16 00:16:00,
2013-04-15 17:21:00,48.5,36.5,29.90,NNE,15,19.0,21.0,63,0.00,,,0.00,489,Wunderground v.1.15,2013-04-16 00:21:00,
2013-04-15 17:27:00,48.4,36.4,29.90,North,355,18.0,27.0,63,0.00,,,0.00,466,Wunderground v.1.15,2013-04-16 00:27:00,
2013-04-15 17:32:00,48.3,36.7,29.91,NE,44,17.0,17.0,64,0.00,,,0.00,450,Wunderground v.1.15,2013-04-16 00:32:00,
2013-04-15 17:38:00,48.0,37.2,29.91,North,11,19.0,25.0,66,0.00,,,0.00,427,Wunderground v.1.15,2013-04-16 00:38:00,
2013-04-15 17:44:00,47.9,37.5,29.91,NNW,340,18.0,24.0,67,0.00,,,0.00,408,Wunderground v.1.15,2013-04-16 00:44:00,
2013-04-15 17:49:00,47.9,37.5,29.91,North,360,17.0,24.0,67,0.00,,,0.00,388,Wunderground v.1.15,2013-04-16 00:49:00,
2013-04-15 17:55:00,48.1,37.7,29.91,NNW,343,14.0,20.0,67,0.00,,,0.00,362,Wunderground v.1.15,2013-04-16 00:55:00,
2013-04-15 18:01:00,48.2,37.8,29.91,North,5,12.0,14.0,67,0.00,,,0.00,348,Wunderground v.1.15,2013-04-16 01:01:00,
2013-04-15 18:06:00,48.1,37.7,29.91,NE,41,13.0,21.0,67,0.00,,,0.00,329,Wunderground v.1.15,2013-04-16 01:06:00,
2013-04-15 18:11:00,47.9,37.5,29.91,North,5,15.0,17.0,67,0.00,,,0.00,308,Wunderground v.1.15,2013-04-16 01:11:00,
2013-04-15 18:17:00,47.8,37.7,29.91,North,360,14.0,22.0,68,0.00,,,0.00,290,Wunderground v.1.15,2013-04-16 01:17:00,
2013-04-15 18:22:00,47.9,38.2,29.91,NNE,19,13.0,17.0,69,0.00,,,0.00,269,Wunderground v.1.15,2013-04-16 01:22:00,
2013-04-15 18:28:00,48.0,38.3,29.91,North,360,12.0,17.0,69,0.00,,,0.00,246,Wunderground v.1.15,2013-04-16 01:28:00,
2013-04-15 18:34:00,48.2,38.5,29.91,North,5,12.0,23.0,69,0.00,,,0.00,227,Wunderground v.1.15,2013-04-16 01:34:00,
2013-04-15 18:39:00,48.2,38.5,29.90,NNW,348,13.0,23.0,69,0.00,,,0.00,202,Wunderground v.1.15,2013-04-16 01:39:00,
2013-04-15 18:44:00,48.1,38.4,29.90,North,11,13.0,20.0,69,0.00,,,0.00,179,Wunderground v.1.15,2013-04-16 01:44:00,
2013-04-15 18:51:00,48.1,38.4,29.90,North,5,12.0,12.0,69,0.00,,,0.00,151,Wunderground v.1.15,2013-04-16 01:51:00,
2013-04-15 18:56:00,48.1,38.4,29.91,NNE,20,11.0,12.0,69,0.00,,,0.00,128,Wunderground v.1.15,2013-04-16 01:56:00,
2013-04-15 19:02:00,48.1,38.4,29.90,North,5,10.0,14.0,69,0.00,,,0.00,105,Wunderground v.1.15,2013-04-16 02:02:00,
2013-04-15 19:07:00,48.0,38.7,29.90,NNW,342,10.0,15.0,70,0.00,,,0.00,86,Wunderground v.1.15,2013-04-16 02:07:00,
2013-04-15 19:12:00,47.8,38.8,29.91,North,5,11.0,14.0,71,0.00,,,0.00,67,Wunderground v.1.15,2013-04-16 02:12:00,
2013-04-15 19:19:00,47.4,38.5,29.91,NNE,15,11.0,17.0,71,0.00,,,0.00,46,Wunderground v.1.15,2013-04-16 02:19:00,
2013-04-15 19:24:00,47.3,38.7,29.91,North,5,10.0,11.0,72,0.00,,,0.00,33,Wunderground v.1.15,2013-04-16 02:24:00,
2013-04-15 19:31:00,47.0,38.4,29.91,North,360,10.0,10.0,72,0.00,,,0.00,21,Wunderground v.1.15,2013-04-16 02:31:00,
2013-04-15 19:37:00,46.7,38.5,29.91,North,355,11.0,15.0,73,0.00,,,0.00,12,Wunderground v.1.15,2013-04-16 02:37:00,
2013-04-15 19:42:00,46.4,39.2,29.91,NNE,23,11.0,12.0,76,0.00,,,0.00,9,Wunderground v.1.15,2013-04-16 02:42:00,
2013-04-15 19:47:00,46.2,38.4,29.91,North,355,11.0,16.0,74,0.00,,,0.00,5,Wunderground v.1.15,2013-04-16 02:47:00,
2013-04-15 19:53:00,45.9,38.4,29.91,North,5,11.0,11.0,75,0.00,,,0.00,0,Wunderground v.1.15,2013-04-16 02:53:00,
2013-04-15 19:58:00,45.8,38.7,29.91,NNE,17,10.0,11.0,76,0.00,,,0.00,0,Wunderground v.1.15,2013-04-16 02:58:00,
2013-04-15 20:04:00,45.5,38.0,29.92,NNE,31,7.0,10.0,75,0.00,,,0.00,0,Wunderground v.1.15,2013-04-16 03:04:00,
2013-04-15 20:10:00,45.4,37.2,29.92,NNE,25,7.0,10.0,73,0.00,,,0.00,0,Wunderground v.1.15,2013-04-16 03:10:00,
2013-04-15 20:15:00,45.2,36.4,29.92,NE,50,7.0,9.0,71,0.00,,,0.00,0,Wunderground v.1.15,2013-04-16 03:15:00,
2013-04-15 20:22:00,45.1,36.6,29.92,NE,38,8.0,11.0,72,0.00,,,0.00,0,Wunderground v.1.15,2013-04-16 03:22:00,
2013-04-15 20:41:00,44.6,36.5,29.94,NNE,29,7.0,10.0,73,0.00,,,0.00,0,Wunderground v.1.15,2013-04-16 03:41:00,
2013-04-15 21:13:00,44.4,37.0,29.95,NNE,28,12.0,14.0,75,0.00,,,0.00,0,Wunderground v.1.15,2013-04-16 04:13:00,
2013-04-15 21:17:00,44.4,37.0,29.95,NNE,22,12.0,14.0,75,0.00,,,0.00,0,Wunderground v.1.15,2013-04-16 04:17:00,
2013-04-15 21:19:00,44.4,37.0,29.95,NE,34,11.0,19.0,75,0.00,,,0.00,0,Wunderground v.1.15,2013-04-16 04:19:00,
2013-04-15 21:21:00,44.4,37.0,29.96,NNE,26,12.0,15.0,75,0.00,,,0.00,0,Wunderground v.1.15,2013-04-16 04:21:00,
2013-04-15 21:26:00,44.4,37.3,29.96,North,9,11.0,15.0,76,0.00,,,0.00,0,Wunderground v.1.15,2013-04-16 04:26:00,
2013-04-15 21:27:00,44.3,37.2,29.96,NNE,12,11.0,15.0,76,0.00,,,0.00,0,Wunderground v.1.15,2013-04-16 04:27:00,
2013-04-15 21:32:00,44.3,37.2,29.96,NNE,28,10.0,12.0,76,0.00,,,0.00,0,Wunderground v.1.15,2013-04-16 04:32:00,
2013-04-15 21:38:00,44.2,37.1,29.96,NNE,33,10.0,13.0,76,0.00,,,0.00,0,Wunderground v.1.15,2013-04-16 04:38:00,
2013-04-15 21:44:00,44.1,37.3,29.96,NNE,16,10.0,11.0,77,0.00,,,0.00,0,Wunderground v.1.15,2013-04-16 04:44:00,
2013-04-15 21:49:00,44.1,37.3,29.97,NNE,28,10.0,12.0,77,0.00,,,0.00,0,Wunderground v.1.15,2013-04-16 04:49:00,
2013-04-15 21:55:00,44.0,37.3,29.97,NE,49,10.0,13.0,77,0.00,,,0.00,0,Wunderground v.1.15,2013-04-16 04:55:00,
2013-04-15 22:01:00,44.0,37.3,29.97,NE,36,9.0,10.0,77,0.00,,,0.00,0,Wunderground v.1.15,2013-04-16 05:01:00,
2013-04-15 22:06:00,43.9,37.5,29.97,NNE,15,9.0,11.0,78,0.00,,,0.00,0,Wunderground v.1.15,2013-04-16 05:06:00,
2013-04-15 22:12:00,43.8,37.4,29.97,NE,49,8.0,8.0,78,0.00,,,0.00,0,Wunderground v.1.15,2013-04-16 05:12:00,
2013-04-15 22:17:00,43.8,37.7,29.97,NNE,19,8.0,13.0,79,0.00,,,0.00,0,Wunderground v.1.15,2013-04-16 05:17:00,
2013-04-15 22:22:00,43.8,37.7,29.97,NNE,30,10.0,13.0,79,0.00,,,0.00,0,Wunderground v.1.15,2013-04-16 05:22:00,
2013-04-15 22:27:00,43.8,37.7,29.97,NE,47,9.0,13.0,79,0.00,,,0.00,0,Wunderground v.1.15,2013-04-16 05:27:00,
2013-04-15 22:33:00,43.8,37.7,29.97,NE,39,4.0,6.0,79,0.00,,,0.00,0,Wunderground v.1.15,2013-04-16 05:33:00,
2013-04-15 22:38:00,43.8,37.7,29.97,NNE,24,1.0,6.0,79,0.00,,,0.00,0,Wunderground v.1.15,2013-04-16 05:38:00,
2013-04-15 22:43:00,43.8,37.7,29.97,NNE,24,1.0,5.0,79,0.00,,,0.00,0,Wunderground v.1.15,2013-04-16 05:43:00,
2013-04-15 22:49:00,43.8,37.7,29.97,NNE,24,0.0,5.0,79,0.00,,,0.00,0,Wunderground v.1.15,2013-04-16 05:49:00,
2013-04-15 22:54:00,43.8,37.7,29.97,NNE,23,0.0,4.0,79,0.00,,,0.00,0,Wunderground v.1.15,2013-04-16 05:54:00,
2013-04-15 23:01:00,43.8,37.7,29.97,NNE,22,1.0,1.0,79,0.00,,,0.00,0,Wunderground v.1.15,2013-04-16 06:01:00,
2013-04-15 23:06:00,43.8,37.7,29.97,NNE,23,0.0,1.0,79,0.00,,,0.00,0,Wunderground v.1.15,2013-04-16 06:06:00,
2013-04-15 23:11:00,43.8,37.7,29.97,NNE,22,0.0,0.0,79,0.00,,,0.00,0,Wunderground v.1.15,2013-04-16 06:11:00,
2013-04-15 23:17:00,43.8,37.7,29.97,NNE,23,0.0,0.0,79,0.00,,,0.00,0,Wunderground v.1.15,2013-04-16 06:17:00,
2013-04-15 23:22:00,43.8,37.7,29.97,NNE,23,0.0,0.0,79,0.00,,,0.00,0,Wunderground v.1.15,2013-04-16 06:22:00,
2013-04-15 23:28:00,43.9,37.8,29.97,NNE,23,0.0,0.0,79,0.00,,,0.00,0,Wunderground v.1.15,2013-04-16 06:28:00,
2013-04-15 23:34:00,43.9,37.8,29.97,NNE,23,0.0,0.0,79,0.00,,,0.00,0,Wunderground v.1.15,2013-04-16 06:34:00,
2013-04-15 23:41:00,43.9,37.8,29.98,NNE,22,0.0,0.0,79,0.00,,,0.00,0,Wunderground v.1.15,2013-04-16 06:41:00,
2013-04-15 23:46:00,44.0,37.9,29.98,NNE,23,0.0,0.0,79,0.00,,,0.00,0,Wunderground v.1.15,2013-04-16 06:46:00,
2013-04-15 23:52:00,44.0,37.9,29.98,NNE,22,0.0,0.0,79,0.00,,,0.00,0,Wunderground v.1.15,2013-04-16 06:52:00,
2013-04-15 23:58:00,44.0,37.9,29.98,NNE,22,0.0,0.0,79,0.00,,,0.00,0,Wunderground v.1.15,2013-04-16 06:58:00,